sensor_id;sensor_type;location;lat;lon;timestamp;pressure;altitude;pressure_sealevel;temperature;humidity
74441;BME280;62870;54.692;25.284;2024-03-23T00:55:14;996.3;;;26.1;23
74441;BME280;62870;54.692;25.284;2024-03-23T01:00:24;996.2;;;26.1;23
74441;BME280;62870;54.692;25.284;2024-03-23T01:05:26;996.1;;;26.1;23.1
74441;BME280;62870;54.692;25.284;2024-03-23T01:10:00;996.1;;;26.1;23.1
74441;BME280;62870;54.692;25.284;2024-03-23T01:15:26;995.9;;;26;23.4
74441;BME280;62870;54.692;25.284;2024-03-23T01:19:54;995.9;;;26;23.4
74441;BME280;62870;54.692;25.284;2024-03-23T01:25:18;995.8;;;26;23.2
74441;BME280;62870;54.692;25.284;2024-03-23T01:29:58;995.8;;;26;23.2
74441;BME280;62870;54.692;25.284;2024-03-23T01:34:46;995.9;;;26;23.2
74441;BME280;62870;54.692;25.284;2024-03-23T01:39:54;995.9;;;26.1;23.1
74441;BME280;62870;54.692;25.284;2024-03-23T01:44:46;995.8;;;26;23.4
74441;BME280;62870;54.692;25.284;2024-03-23T01:49:58;995.8;;;26;23.5
74441;BME280;62870;54.692;25.284;2024-03-23T01:55:28;995.6;;;26.1;23.4
74441;BME280;62870;54.692;25.284;2024-03-23T01:59:54;995.6;;;26.1;23.4
74441;BME280;62870;54.692;25.284;2024-03-23T02:04:46;995.5;;;26.1;23.3
74441;BME280;62870;54.692;25.284;2024-03-23T02:10:26;995.4;;;26.1;23.4
74441;BME280;62870;54.692;25.284;2024-03-23T02:14:58;995.4;;;26.1;23.4
74441;BME280;62870;54.692;25.284;2024-03-23T02:20:14;995.3;;;26;23.6
74441;BME280;62870;54.692;25.284;2024-03-23T02:25:04;995.3;;;26;23.6
74441;BME280;62870;54.692;25.284;2024-03-23T02:30:14;995.1;;;26.1;23.5
74441;BME280;62870;54.692;25.284;2024-03-23T02:34:38;995.1;;;26.1;23.5
74441;BME280;62870;54.692;25.284;2024-03-23T02:40:27;995;;;26.1;23.4
74441;BME280;62870;54.692;25.284;2024-03-23T02:45:14;995;;;26.1;23.7
74441;BME280;62870;54.692;25.284;2024-03-23T02:50:14;995;;;26;23.8
74441;BME280;62870;54.692;25.284;2024-03-23T02:55:24;994.9;;;26;23.8
74441;BME280;62870;54.692;25.284;2024-03-23T03:00:26;994.9;;;26.1;23.6
74441;BME280;62870;54.692;25.284;2024-03-23T03:04:38;994.9;;;26.1;23.6
74441;BME280;62870;54.692;25.284;2024-03-23T03:10:16;994.8;;;26.1;23.5
74441;BME280;62870;54.692;25.284;2024-03-23T03:14:38;994.8;;;26.1;23.5
74441;BME280;62870;54.692;25.284;2024-03-23T03:19:46;994.8;;;26.1;23.8
74441;BME280;62870;54.692;25.284;2024-03-23T03:24:38;994.8;;;26;23.9
74441;BME280;62870;54.692;25.284;2024-03-23T03:30:26;994.8;;;26.1;23.8
74441;BME280;62870;54.692;25.284;2024-03-23T03:35:26;994.7;;;26.1;23.6
74441;BME280;62870;54.692;25.284;2024-03-23T03:39:56;994.7;;;26.1;23.6
74441;BME280;62870;54.692;25.284;2024-03-23T03:45:16;994.7;;;26.1;23.8
74441;BME280;62870;54.692;25.284;2024-03-23T03:49:48;994.7;;;26.1;23.8
74441;BME280;62870;54.692;25.284;2024-03-23T03:55:14;994.6;;;26.1;24
74441;BME280;62870;54.692;25.284;2024-03-23T04:00:04;994.6;;;26.1;24
74441;BME280;62870;54.692;25.284;2024-03-23T04:04:40;994.5;;;26.1;23.9
74441;BME280;62870;54.692;25.284;2024-03-23T04:09:38;994.5;;;26.1;23.8
74441;BME280;62870;54.692;25.284;2024-03-23T04:15:16;994.5;;;26.1;23.9
74441;BME280;62870;54.692;25.284;2024-03-23T04:19:54;994.5;;;26.1;23.9
74441;BME280;62870;54.692;25.284;2024-03-23T04:25:26;994.4;;;26.1;24.1
74441;BME280;62870;54.692;25.284;2024-03-23T04:29:58;994.4;;;26.1;24.1
74441;BME280;62870;54.692;25.284;2024-03-23T04:35:04;994.4;;;26.1;24
74441;BME280;62870;54.692;25.284;2024-03-23T04:39:48;994.4;;;26.1;23.9
74441;BME280;62870;54.692;25.284;2024-03-23T04:44:48;994.4;;;26.2;23.8
74441;BME280;62870;54.692;25.284;2024-03-23T04:49:54;994.3;;;26.2;23.9
74441;BME280;62870;54.692;25.284;2024-03-23T04:54:38;994.4;;;26.1;24.2
74441;BME280;62870;54.692;25.284;2024-03-23T04:59:38;994.4;;;26.1;24.2
74441;BME280;62870;54.692;25.284;2024-03-23T05:04:58;994.4;;;26.1;24.2
74441;BME280;62870;54.692;25.284;2024-03-23T05:10:26;994.3;;;26.2;24
74441;BME280;62870;54.692;25.284;2024-03-23T05:14:56;994.3;;;26.2;24
74441;BME280;62870;54.692;25.284;2024-03-23T05:20:16;994.3;;;26.1;24.2
74441;BME280;62870;54.692;25.284;2024-03-23T05:24:56;994.3;;;26.1;24.2
74441;BME280;62870;54.692;25.284;2024-03-23T05:30:14;994.3;;;26.1;24.4
74441;BME280;62870;54.692;25.284;2024-03-23T05:35:04;994.3;;;26.1;24.4
74441;BME280;62870;54.692;25.284;2024-03-23T05:40:16;994.4;;;26.2;24.1
74441;BME280;62870;54.692;25.284;2024-03-23T05:45:12;994.5;;;26.2;24
74441;BME280;62870;54.692;25.284;2024-03-23T05:50:16;994.4;;;26.2;24.2
74441;BME280;62870;54.692;25.284;2024-03-23T05:54:40;994.4;;;26.2;24.2
74441;BME280;62870;54.692;25.284;2024-03-23T05:59:50;994.4;;;26.2;24.4
74441;BME280;62870;54.692;25.284;2024-03-23T06:04:46;994.4;;;26.1;24.4
74441;BME280;62870;54.692;25.284;2024-03-23T06:10:06;994.4;;;26.2;24.2
74441;BME280;62870;54.692;25.284;2024-03-23T06:15:14;994.4;;;26.2;24.1
74441;BME280;62870;54.692;25.284;2024-03-23T06:19:48;994.4;;;26.2;24.1
74441;BME280;62870;54.692;25.284;2024-03-23T06:24:38;994.4;;;26.2;24.1
74441;BME280;62870;54.692;25.284;2024-03-23T06:30:06;994.4;;;26.2;24.4
74441;BME280;62870;54.692;25.284;2024-03-23T06:34:40;994.4;;;26.2;24.4
74441;BME280;62870;54.692;25.284;2024-03-23T06:39:46;994.4;;;26.2;24.4
74441;BME280;62870;54.692;25.284;2024-03-23T06:45:26;994.4;;;26.3;24.1
74441;BME280;62870;54.692;25.284;2024-03-23T06:49:38;994.4;;;26.3;24.1
74441;BME280;62870;54.692;25.284;2024-03-23T06:55:26;994.5;;;26.3;24.3
74441;BME280;62870;54.692;25.284;2024-03-23T07:00:06;994.5;;;26.2;24.4
74441;BME280;62870;54.692;25.284;2024-03-23T07:05:26;994.5;;;26.2;24.4
74441;BME280;62870;54.692;25.284;2024-03-23T07:10:04;994.5;;;26.2;24.4
74441;BME280;62870;54.692;25.284;2024-03-23T07:14:58;994.5;;;26.3;24.2
74441;BME280;62870;54.692;25.284;2024-03-23T07:20:26;994.5;;;26.3;24.1
74441;BME280;62870;54.692;25.284;2024-03-23T07:25:24;994.6;;;26.3;24.3
74441;BME280;62870;54.692;25.284;2024-03-23T07:30:14;994.5;;;26.3;24.3
74441;BME280;62870;54.692;25.284;2024-03-23T07:35:26;994.6;;;26.3;24.3
74441;BME280;62870;54.692;25.284;2024-03-23T07:40:26;994.6;;;26.3;24.2
74441;BME280;62870;54.692;25.284;2024-03-23T07:44:40;994.6;;;26.3;24.2
74441;BME280;62870;54.692;25.284;2024-03-23T07:50:24;994.5;;;26.4;24.1
74441;BME280;62870;54.692;25.284;2024-03-23T07:54:54;994.5;;;26.4;24.1
74441;BME280;62870;54.692;25.284;2024-03-23T08:00:04;994.5;;;26.3;24.3
74441;BME280;62870;54.692;25.284;2024-03-23T08:05:06;994.5;;;26.3;24.5
74441;BME280;62870;54.692;25.284;2024-03-23T08:09:56;994.5;;;26.3;24.5
74441;BME280;62870;54.692;25.284;2024-03-23T08:14:46;994.4;;;26.3;24.4
74441;BME280;62870;54.692;25.284;2024-03-23T08:20:08;994.3;;;26.4;24.1
74441;BME280;62870;54.692;25.284;2024-03-23T08:24:58;994.3;;;26.4;24.1
74441;BME280;62870;54.692;25.284;2024-03-23T08:30:28;994.2;;;26.4;24.3
74441;BME280;62870;54.692;25.284;2024-03-23T08:34:48;994.2;;;26.4;24.3
74441;BME280;62870;54.692;25.284;2024-03-23T08:40:08;994.3;;;26.4;24.3
74441;BME280;62870;54.692;25.284;2024-03-23T08:45:28;994.3;;;26.5;24.2
74441;BME280;62870;54.692;25.284;2024-03-23T08:50:18;994.3;;;26.5;24.1
74441;BME280;62870;54.692;25.284;2024-03-23T08:55:14;994.2;;;26.5;24.2
74441;BME280;62870;54.692;25.284;2024-03-23T08:59:52;994.2;;;26.5;24.2
74441;BME280;62870;54.692;25.284;2024-03-23T09:05:28;994.2;;;26.5;24.2
74441;BME280;62870;54.692;25.284;2024-03-23T09:09:38;994.2;;;26.5;24.2
74441;BME280;62870;54.692;25.284;2024-03-23T09:15:28;994.1;;;26.5;24.1
74441;BME280;62870;54.692;25.284;2024-03-23T09:19:54;994.1;;;26.5;24.1
74441;BME280;62870;54.692;25.284;2024-03-23T09:25:14;994;;;26.6;24
74441;BME280;62870;54.692;25.284;2024-03-23T09:29:46;994;;;26.6;24
74441;BME280;62870;54.692;25.284;2024-03-23T09:35:08;994;;;26.5;24.3
74441;BME280;62870;54.692;25.284;2024-03-23T09:39:46;994;;;26.5;24.3
74441;BME280;62870;54.692;25.284;2024-03-23T09:45:02;994;;;26.5;24.3
74441;BME280;62870;54.692;25.284;2024-03-23T09:49:46;994.1;;;26.5;24.1
74441;BME280;62870;54.692;25.284;2024-03-23T09:54:50;994.1;;;26.6;24
74441;BME280;62870;54.692;25.284;2024-03-23T09:59:58;994.1;;;26.6;23.9
74441;BME280;62870;54.692;25.284;2024-03-23T10:05:22;994.1;;;26.6;24
74441;BME280;62870;54.692;25.284;2024-03-23T10:10:10;994;;;26.6;23.9
74441;BME280;62870;54.692;25.284;2024-03-23T10:14:46;994;;;26.6;23.9
74441;BME280;62870;54.692;25.284;2024-03-23T10:20:28;994;;;26.7;23.8
74441;BME280;62870;54.692;25.284;2024-03-23T10:24:40;994;;;26.7;23.8
74441;BME280;62870;54.692;25.284;2024-03-23T10:29:40;994;;;26.7;23.7
74441;BME280;62870;54.692;25.284;2024-03-23T10:35:19;994.1;;;26.7;23.7
74441;BME280;62870;54.692;25.284;2024-03-23T10:40:15;994.1;;;26.7;23.7
74441;BME280;62870;54.692;25.284;2024-03-23T10:45:04;994.1;;;26.7;23.7
74441;BME280;62870;54.692;25.284;2024-03-23T10:50:10;994.1;;;26.8;23.5
74441;BME280;62870;54.692;25.284;2024-03-23T10:54:38;994.1;;;26.8;23.5
74441;BME280;62870;54.692;25.284;2024-03-23T11:00:06;994.2;;;26.8;23.5
74441;BME280;62870;54.692;25.284;2024-03-23T11:04:38;994.2;;;26.8;23.5
74441;BME280;62870;54.692;25.284;2024-03-23T11:10:29;994.1;;;26.7;23.6
74441;BME280;62870;54.692;25.284;2024-03-23T11:14:46;994.1;;;26.7;23.6
74441;BME280;62870;54.692;25.284;2024-03-23T11:19:38;994;;;26.7;23.5
74441;BME280;62870;54.692;25.284;2024-03-23T11:24:38;994;;;26.8;23.5
74441;BME280;62870;54.692;25.284;2024-03-23T11:30:09;993.9;;;26.8;23.5
74441;BME280;62870;54.692;25.284;2024-03-23T11:34:39;993.8;;;26.8;23.4
74441;BME280;62870;54.692;25.284;2024-03-23T11:40:29;993.7;;;26.8;23.5
74441;BME280;62870;54.692;25.284;2024-03-23T11:45:29;993.6;;;26.8;23.5
74441;BME280;62870;54.692;25.284;2024-03-23T11:49:58;993.6;;;26.8;23.5
74441;BME280;62870;54.692;25.284;2024-03-23T11:55:18;993.6;;;26.8;23.3
74441;BME280;62870;54.692;25.284;2024-03-23T12:00:20;993.6;;;26.9;23.3
74441;BME280;62870;54.692;25.284;2024-03-23T12:05:14;993.5;;;26.8;23.3
74441;BME280;62870;54.692;25.284;2024-03-23T12:09:46;993.5;;;26.8;23.3
74441;BME280;62870;54.692;25.284;2024-03-23T12:15:16;993.4;;;26.9;23.2
74441;BME280;62870;54.692;25.284;2024-03-23T12:20:00;993.4;;;26.9;23.2
74441;BME280;62870;54.692;25.284;2024-03-23T12:25:16;993.3;;;27.2;23
74441;BME280;62870;54.692;25.284;2024-03-23T12:29:58;993.3;;;27.2;23
74441;BME280;62870;54.692;25.284;2024-03-23T12:34:44;993.3;;;27.3;22.9
74441;BME280;62870;54.692;25.284;2024-03-23T12:39:54;993.1;;;27.3;22.7
74441;BME280;62870;54.692;25.284;2024-03-23T12:45:08;993.1;;;27.4;22.4
74441;BME280;62870;54.692;25.284;2024-03-23T12:50:24;993.1;;;27.5;22.4
74441;BME280;62870;54.692;25.284;2024-03-23T12:54:38;993.1;;;27.5;22.4
74441;BME280;62870;54.692;25.284;2024-03-23T12:59:46;993.1;;;27.6;22.4
74441;BME280;62870;54.692;25.284;2024-03-23T13:04:59;993.1;;;27.6;22.3
74441;BME280;62870;54.692;25.284;2024-03-23T13:09:54;993;;;27.6;22.1
74441;BME280;62870;54.692;25.284;2024-03-23T13:14:54;992.9;;;27.7;22
74441;BME280;62870;54.692;25.284;2024-03-23T13:20:26;992.9;;;27.8;21.9
74441;BME280;62870;54.692;25.284;2024-03-23T13:24:58;992.9;;;27.8;21.9
74441;BME280;62870;54.692;25.284;2024-03-23T13:30:26;992.6;;;27.8;22
74441;BME280;62870;54.692;25.284;2024-03-23T13:34:56;992.6;;;27.8;22
74441;BME280;62870;54.692;25.284;2024-03-23T13:40:26;992.6;;;27.8;21.8
74441;BME280;62870;54.692;25.284;2024-03-23T13:45:02;992.6;;;27.8;21.8
74441;BME280;62870;54.692;25.284;2024-03-23T13:50:16;992.5;;;27.7;21.8
74441;BME280;62870;54.692;25.284;2024-03-23T13:55:26;992.4;;;27.7;21.8
74441;BME280;62870;54.692;25.284;2024-03-23T14:00:26;992.5;;;27.7;21.8
74441;BME280;62870;54.692;25.284;2024-03-23T14:05:04;992.5;;;27.7;21.8
74441;BME280;62870;54.692;25.284;2024-03-23T14:10:26;992.5;;;27.6;21.7
74441;BME280;62870;54.692;25.284;2024-03-23T14:15:26;992.5;;;27.6;21.7
74441;BME280;62870;54.692;25.284;2024-03-23T14:20:26;992.6;;;27.5;21.7
74441;BME280;62870;54.692;25.284;2024-03-23T14:25:26;992.6;;;27.5;21.8
74441;BME280;62870;54.692;25.284;2024-03-23T14:29:46;992.6;;;27.5;21.8
74441;BME280;62870;54.692;25.284;2024-03-23T14:34:38;992.5;;;27.5;21.7
74441;BME280;62870;54.692;25.284;2024-03-23T14:39:38;992.5;;;27.5;21.7
74441;BME280;62870;54.692;25.284;2024-03-23T14:45:02;992.4;;;27.4;21.6
74441;BME280;62870;54.692;25.284;2024-03-23T14:49:54;992.3;;;27.3;21.6
74441;BME280;62870;54.692;25.284;2024-03-23T14:54:48;992.2;;;27.2;21.7
74441;BME280;62870;54.692;25.284;2024-03-23T14:59:58;992.2;;;27.2;21.9
74441;BME280;62870;54.692;25.284;2024-03-23T15:05:00;992.2;;;27.2;21.9
74441;BME280;62870;54.692;25.284;2024-03-23T15:10:00;992.2;;;27.2;22
74441;BME280;62870;54.692;25.284;2024-03-23T15:15:26;992.2;;;27.1;22.3
74441;BME280;62870;54.692;25.284;2024-03-23T15:19:46;992.2;;;27.1;22.3
74441;BME280;62870;54.692;25.284;2024-03-23T15:25:16;992;;;27;22.3
74441;BME280;62870;54.692;25.284;2024-03-23T15:30:26;992.1;;;27;22.3
74441;BME280;62870;54.692;25.284;2024-03-23T15:35:26;992.1;;;27;22.3
74441;BME280;62870;54.692;25.284;2024-03-23T15:40:11;992.1;;;27;22.5
74441;BME280;62870;54.692;25.284;2024-03-23T15:45:26;992;;;27;22.6
74441;BME280;62870;54.692;25.284;2024-03-23T15:50:26;992;;;26.9;22.7
74441;BME280;62870;54.692;25.284;2024-03-23T15:55:05;992;;;26.9;22.7
74441;BME280;62870;54.692;25.284;2024-03-23T16:00:26;992;;;26.9;22.7
74441;BME280;62870;54.692;25.284;2024-03-23T16:04:54;992;;;26.9;22.7
74441;BME280;62870;54.692;25.284;2024-03-23T16:09:46;992;;;26.9;22.7
74441;BME280;62870;54.692;25.284;2024-03-23T16:15:04;992;;;26.9;22.8
74441;BME280;62870;54.692;25.284;2024-03-23T16:20:03;992;;;26.9;23.2
74441;BME280;62870;54.692;25.284;2024-03-23T16:24:43;992;;;26.8;23.4
74441;BME280;62870;54.692;25.284;2024-03-23T16:30:00;991.9;;;26.8;23.4
74441;BME280;62870;54.692;25.284;2024-03-23T16:35:16;991.9;;;26.8;23.2
74441;BME280;62870;54.692;25.284;2024-03-23T16:40:26;991.8;;;26.8;23.2
74441;BME280;62870;54.692;25.284;2024-03-23T16:45:08;991.8;;;26.8;23.6
74441;BME280;62870;54.692;25.284;2024-03-23T16:49:38;991.8;;;26.8;23.6
74441;BME280;62870;54.692;25.284;2024-03-23T16:55:26;991.8;;;26.7;23.9
74441;BME280;62870;54.692;25.284;2024-03-23T17:00:16;991.8;;;26.7;23.7
74441;BME280;62870;54.692;25.284;2024-03-23T17:05:12;991.8;;;26.7;23.7
74441;BME280;62870;54.692;25.284;2024-03-23T17:09:46;991.8;;;26.7;23.7
74441;BME280;62870;54.692;25.284;2024-03-23T17:15:26;991.8;;;26.7;24.2
74441;BME280;62870;54.692;25.284;2024-03-23T17:20:10;991.7;;;26.6;24.4
74441;BME280;62870;54.692;25.284;2024-03-23T17:25:26;991.6;;;26.6;24.5
74441;BME280;62870;54.692;25.284;2024-03-23T17:30:12;991.7;;;26.6;24.3
74441;BME280;62870;54.692;25.284;2024-03-23T17:35:13;991.7;;;26.7;24.1
74441;BME280;62870;54.692;25.284;2024-03-23T17:39:46;991.7;;;26.7;24.1
74441;BME280;62870;54.692;25.284;2024-03-23T17:45:26;991.5;;;26.7;24.4
74441;BME280;62870;54.692;25.284;2024-03-23T17:49:46;991.5;;;26.7;24.4
74441;BME280;62870;54.692;25.284;2024-03-23T17:55:03;991.5;;;26.6;24.6
74441;BME280;62870;54.692;25.284;2024-03-23T17:59:38;991.5;;;26.6;24.7
74441;BME280;62870;54.692;25.284;2024-03-23T18:05:16;991.3;;;26.7;24.4
74441;BME280;62870;54.692;25.284;2024-03-23T18:09:38;991.3;;;26.7;24.4
74441;BME280;62870;54.692;25.284;2024-03-23T18:15:03;991.3;;;26.7;24.4
74441;BME280;62870;54.692;25.284;2024-03-23T18:20:00;991.3;;;26.6;24.7
74441;BME280;62870;54.692;25.284;2024-03-23T18:24:58;991.3;;;26.6;25
74441;BME280;62870;54.692;25.284;2024-03-23T18:30:16;991.5;;;26.6;24.9
74441;BME280;62870;54.692;25.284;2024-03-23T18:34:58;991.5;;;26.6;24.9
74441;BME280;62870;54.692;25.284;2024-03-23T18:39:48;991.5;;;26.6;24.8
74441;BME280;62870;54.692;25.284;2024-03-23T18:44:38;991.6;;;26.6;24.8
74441;BME280;62870;54.692;25.284;2024-03-23T18:50:17;991.5;;;26.5;25.4
74441;BME280;62870;54.692;25.284;2024-03-23T18:54:38;991.5;;;26.5;25.4
74441;BME280;62870;54.692;25.284;2024-03-23T19:00:17;991.4;;;26.4;25.5
74441;BME280;62870;54.692;25.284;2024-03-23T19:04:54;991.4;;;26.4;25.5
74441;BME280;62870;54.692;25.284;2024-03-23T19:10:26;991.3;;;26.5;25.3
74441;BME280;62870;54.692;25.284;2024-03-23T19:14:54;991.3;;;26.5;25.3
74441;BME280;62870;54.692;25.284;2024-03-23T19:20:27;991;;;26.4;25.9
74441;BME280;62870;54.692;25.284;2024-03-23T19:25:05;991;;;26.4;25.9
74441;BME280;62870;54.692;25.284;2024-03-23T19:29:54;990.9;;;26.4;26
74441;BME280;62870;54.692;25.284;2024-03-23T19:35:26;990.7;;;26.4;25.7
74441;BME280;62870;54.692;25.284;2024-03-23T19:39:38;990.7;;;26.4;25.7
74441;BME280;62870;54.692;25.284;2024-03-23T19:44:39;990.7;;;26.4;25.6
74441;BME280;62870;54.692;25.284;2024-03-23T19:50:26;990.8;;;26.4;26.2
74441;BME280;62870;54.692;25.284;2024-03-23T19:55:26;990.7;;;26.3;26.4
74441;BME280;62870;54.692;25.284;2024-03-23T19:59:38;990.7;;;26.3;26.4
74441;BME280;62870;54.692;25.284;2024-03-23T20:05:10;990.6;;;26.2;26.2
74441;BME280;62870;54.692;25.284;2024-03-23T20:09:38;990.6;;;26.2;26.2
74441;BME280;62870;54.692;25.284;2024-03-23T20:15:12;990.5;;;26.3;26.1
74441;BME280;62870;54.692;25.284;2024-03-23T20:20:03;990.5;;;26.3;26.1
74441;BME280;62870;54.692;25.284;2024-03-23T20:25:16;990.5;;;26.2;26.8
74441;BME280;62870;54.692;25.284;2024-03-23T20:30:03;990.5;;;26.2;26.8
74441;BME280;62870;54.692;25.284;2024-03-23T20:35:16;990.3;;;26.1;26.8
74441;BME280;62870;54.692;25.284;2024-03-23T20:39:38;990.3;;;26.1;26.8
74441;BME280;62870;54.692;25.284;2024-03-23T20:45:26;990.3;;;26.2;26.4
74441;BME280;62870;54.692;25.284;2024-03-23T20:49:46;990.3;;;26.2;26.4
74441;BME280;62870;54.692;25.284;2024-03-23T20:55:08;990.4;;;26.1;26.9
74441;BME280;62870;54.692;25.284;2024-03-23T21:00:26;990.3;;;26.1;27
74441;BME280;62870;54.692;25.284;2024-03-23T21:05:09;990.3;;;26.1;26.8
74441;BME280;62870;54.692;25.284;2024-03-23T21:09:38;990.3;;;26.1;26.8
74441;BME280;62870;54.692;25.284;2024-03-23T21:14:38;990.2;;;26.2;26.6
74441;BME280;62870;54.692;25.284;2024-03-23T21:19:46;990.1;;;26.2;26.5
74441;BME280;62870;54.692;25.284;2024-03-23T21:24:39;990;;;26.2;26.6
74441;BME280;62870;54.692;25.284;2024-03-23T21:30:26;990;;;26.1;27.1
74441;BME280;62870;54.692;25.284;2024-03-23T21:34:59;990;;;26.1;27.1
74441;BME280;62870;54.692;25.284;2024-03-23T21:40:27;989.9;;;26.1;26.8
74441;BME280;62870;54.692;25.284;2024-03-23T21:44:56;989.9;;;26.1;26.8
74441;BME280;62870;54.692;25.284;2024-03-23T21:50:27;989.6;;;26.2;26.6
74441;BME280;62870;54.692;25.284;2024-03-23T21:55:05;989.6;;;26.2;26.6
74441;BME280;62870;54.692;25.284;2024-03-23T21:59:40;989.5;;;26.1;27
74441;BME280;62870;54.692;25.284;2024-03-23T22:05:13;989.2;;;26.1;27
74441;BME280;62870;54.692;25.284;2024-03-23T22:10:27;989.1;;;26.1;26.8
74441;BME280;62870;54.692;25.284;2024-03-23T22:15:13;989.1;;;26.2;26.7
74441;BME280;62870;54.692;25.284;2024-03-23T22:20:27;989;;;26.2;26.6
74441;BME280;62870;54.692;25.284;2024-03-23T22:25:27;988.9;;;26.2;26.7
74441;BME280;62870;54.692;25.284;2024-03-23T22:30:09;988.8;;;26.2;26.9
74441;BME280;62870;54.692;25.284;2024-03-23T22:35:27;988.7;;;26.1;26.9
74441;BME280;62870;54.692;25.284;2024-03-23T22:39:47;988.7;;;26.1;26.9
74441;BME280;62870;54.692;25.284;2024-03-23T22:45:09;988.4;;;26.1;26.7
74441;BME280;62870;54.692;25.284;2024-03-23T22:49:47;988.4;;;26.1;26.7
74441;BME280;62870;54.692;25.284;2024-03-23T22:54:39;988.3;;;26.1;26.6
74441;BME280;62870;54.692;25.284;2024-03-23T22:59:47;988.2;;;26.1;26.7
74441;BME280;62870;54.692;25.284;2024-03-23T23:05:27;988.1;;;26.1;26.9
74441;BME280;62870;54.692;25.284;2024-03-23T23:09:39;988.1;;;26.1;26.9
74441;BME280;62870;54.692;25.284;2024-03-23T23:15:27;988;;;26.1;26.7
74441;BME280;62870;54.692;25.284;2024-03-23T23:20:09;987.9;;;26.1;26.6
74441;BME280;62870;54.692;25.284;2024-03-23T23:25:17;987.8;;;26.1;26.6
74441;BME280;62870;54.692;25.284;2024-03-23T23:30:27;987.8;;;26.1;26.8
74441;BME280;62870;54.692;25.284;2024-03-23T23:35:17;987.8;;;26.1;26.9
74441;BME280;62870;54.692;25.284;2024-03-23T23:40:13;987.8;;;26;26.9
74441;BME280;62870;54.692;25.284;2024-03-23T23:45:17;987.7;;;26;26.8
74441;BME280;62870;54.692;25.284;2024-03-23T23:50:13;987.6;;;26;26.7
74441;BME280;62870;54.692;25.284;2024-03-23T23:55:27;987.6;;;26.1;26.6
